createdAt,value
2023-04-06T00:01:42.569Z,5.78
2023-04-06T00:04:09.133Z,5.80
2023-04-06T00:06:38.022Z,6.00
2023-04-06T00:09:04.634Z,5.05
2023-04-06T00:11:31.180Z,5.43
2023-04-06T00:14:00.409Z,5.15
2023-04-06T00:16:39.202Z,5.38
2023-04-06T00:19:05.619Z,4.97
2023-04-06T00:21:33.189Z,4.05
2023-04-06T00:24:01.975Z,4.15
2023-04-06T00:26:28.522Z,3.88
2023-04-06T00:28:54.940Z,4.55
2023-04-06T00:31:21.407Z,4.82
2023-04-06T00:33:49.209Z,4.60
2023-04-06T00:36:15.796Z,4.20
2023-04-06T00:38:42.207Z,4.50
2023-04-06T00:41:08.587Z,3.85
2023-04-06T00:43:35.140Z,3.92
2023-04-06T00:46:01.582Z,3.85
2023-04-06T00:48:28.197Z,4.47
2023-04-06T00:50:58.053Z,3.78
2023-04-06T00:53:26.867Z,4.57
2023-04-06T00:55:53.387Z,3.97
2023-04-06T00:58:19.957Z,4.07
2023-04-06T01:00:46.636Z,4.40
2023-04-06T01:03:15.653Z,3.95
2023-04-06T01:05:43.611Z,3.60
2023-04-06T01:08:10.425Z,4.07
2023-04-06T01:10:36.855Z,4.05
2023-04-06T01:13:03.353Z,3.78
2023-04-06T01:15:31.021Z,3.38
2023-04-06T01:17:57.422Z,3.53
2023-04-06T01:20:23.986Z,3.38
2023-04-06T01:22:50.616Z,4.38
2023-04-06T01:25:17.307Z,3.45
2023-04-06T01:27:46.627Z,4.03
2023-04-06T01:30:13.551Z,4.25
2023-04-06T01:32:39.978Z,4.00
2023-04-06T01:35:06.690Z,3.88
2023-04-06T01:37:33.575Z,3.78
2023-04-06T01:40:03.551Z,3.83
2023-04-06T01:42:31.349Z,3.55
2023-04-06T01:44:58.000Z,4.15
2023-04-06T01:47:24.474Z,3.47
2023-04-06T01:49:51.045Z,3.97
2023-04-06T01:52:17.417Z,3.90
2023-04-06T01:54:43.798Z,5.05
2023-04-06T01:57:11.890Z,4.00
2023-04-06T01:59:38.549Z,4.05
2023-04-06T02:02:05.463Z,3.85
2023-04-06T02:04:34.160Z,4.63
2023-04-06T02:07:00.520Z,4.93
2023-04-06T02:09:29.383Z,4.38
2023-04-06T02:11:56.665Z,4.30
2023-04-06T02:14:26.469Z,4.25
2023-04-06T02:16:53.033Z,3.40
2023-04-06T02:19:19.810Z,3.72
2023-04-06T02:21:46.424Z,3.95
2023-04-06T02:24:13.026Z,4.68
2023-04-06T02:26:39.568Z,4.40
2023-04-06T02:29:07.147Z,7.55
2023-04-06T02:31:33.771Z,7.88
2023-04-06T02:34:02.838Z,5.88
2023-04-06T02:36:34.190Z,4.07
2023-04-06T02:39:00.558Z,4.03
2023-04-06T02:41:29.607Z,3.65
2023-04-06T02:43:56.328Z,3.75
2023-04-06T02:46:22.993Z,4.65
2023-04-06T02:48:49.655Z,3.78
2023-04-06T02:51:16.094Z,4.13
2023-04-06T02:53:44.890Z,3.78
2023-04-06T02:56:11.383Z,4.03
2023-04-06T02:58:38.032Z,3.88
2023-04-06T03:01:04.853Z,4.00
2023-04-06T03:03:31.641Z,4.15
2023-04-06T03:05:59.553Z,3.90
2023-04-06T03:08:26.057Z,4.15
2023-04-06T03:10:52.464Z,3.65
2023-04-06T03:13:18.952Z,4.38
2023-04-06T03:15:45.525Z,4.50
2023-04-06T03:18:12.066Z,3.90
2023-04-06T03:20:38.440Z,4.88
2023-04-06T03:23:04.957Z,4.35
2023-04-06T03:25:31.352Z,4.15
2023-04-06T03:28:00.764Z,5.45
2023-04-06T03:30:27.522Z,4.10
2023-04-06T03:32:56.143Z,4.38
2023-04-06T03:35:22.611Z,3.92
2023-04-06T03:37:49.096Z,4.03
2023-04-06T03:40:15.651Z,5.03
2023-04-06T03:42:44.985Z,5.38
2023-04-06T03:45:14.960Z,6.05
2023-04-06T03:47:44.028Z,6.03
2023-04-06T03:50:10.962Z,4.75
2023-04-06T03:52:37.480Z,4.95
2023-04-06T03:55:04.203Z,3.95
2023-04-06T03:57:30.714Z,4.65
2023-04-06T03:59:57.148Z,4.35
2023-04-06T04:02:23.673Z,4.35
2023-04-06T04:04:50.308Z,4.03
2023-04-06T04:07:16.791Z,4.65
2023-04-06T04:09:45.619Z,4.65
2023-04-06T04:12:12.097Z,3.83
2023-04-06T04:14:41.590Z,4.45
2023-04-06T04:17:07.950Z,5.18
2023-04-06T04:19:34.360Z,4.40
2023-04-06T04:22:00.891Z,4.80
2023-04-06T04:24:27.470Z,4.63
2023-04-06T04:26:53.936Z,3.92
2023-04-06T04:29:22.167Z,4.30
2023-04-06T04:31:48.616Z,4.55
2023-04-06T04:34:16.089Z,4.35
2023-04-06T04:36:45.602Z,4.45
2023-04-06T04:39:11.978Z,4.78
2023-04-06T04:41:38.531Z,4.63
2023-04-06T04:44:08.318Z,4.60
2023-04-06T04:46:37.359Z,4.68
2023-04-06T04:49:06.343Z,4.75
2023-04-06T04:51:33.652Z,4.32
2023-04-06T04:54:00.294Z,4.82
2023-04-06T04:56:28.508Z,5.30
2023-04-06T04:58:55.229Z,4.40
2023-04-06T05:01:21.689Z,4.43
2023-04-06T05:03:50.970Z,5.70
2023-04-06T05:06:17.731Z,5.63
2023-04-06T05:08:44.131Z,5.10
2023-04-06T05:11:11.102Z,5.75
2023-04-06T05:13:40.532Z,4.82
2023-04-06T05:16:07.246Z,5.25
2023-04-06T05:18:33.746Z,4.95
2023-04-06T05:21:00.495Z,5.25
2023-04-06T05:23:27.181Z,5.05
2023-04-06T05:25:53.610Z,4.53
2023-04-06T05:28:20.316Z,5.55
2023-04-06T05:30:49.314Z,4.80
2023-04-06T05:33:16.117Z,5.90
2023-04-06T05:35:42.686Z,5.72
2023-04-06T05:38:10.890Z,5.25
2023-04-06T05:40:39.493Z,5.30
2023-04-06T05:43:06.033Z,5.32
2023-04-06T05:45:32.396Z,5.72
2023-04-06T05:47:58.980Z,5.00
2023-04-06T05:50:25.910Z,6.25
2023-04-06T05:52:52.301Z,6.13
2023-04-06T05:55:18.900Z,6.07
2023-04-06T05:57:45.305Z,4.90
2023-04-06T06:00:12.357Z,5.43
2023-04-06T06:02:43.236Z,5.25
2023-04-06T06:05:11.271Z,5.28
2023-04-06T06:07:38.003Z,4.95
2023-04-06T06:10:04.663Z,4.75
2023-04-06T06:12:31.559Z,5.25
2023-04-06T06:14:58.279Z,5.57
2023-04-06T06:17:24.841Z,6.20
2023-04-06T06:19:51.243Z,5.18
2023-04-06T06:22:17.735Z,5.20
2023-04-06T06:24:44.412Z,5.80
2023-04-06T06:27:11.207Z,5.93
2023-04-06T06:29:37.741Z,6.05
2023-04-06T06:32:04.269Z,5.70
2023-04-06T06:34:30.903Z,5.13
2023-04-06T06:36:57.628Z,6.95
2023-04-06T06:39:24.260Z,5.30
2023-04-06T06:41:50.886Z,6.18
2023-04-06T06:44:17.690Z,5.30
2023-04-06T06:46:49.606Z,5.10
2023-04-06T06:49:16.161Z,6.53
2023-04-06T06:51:42.521Z,5.63
2023-04-06T06:54:09.491Z,5.45
2023-04-06T06:56:39.107Z,5.38
2023-04-06T06:59:08.469Z,5.93
2023-04-06T07:01:35.854Z,5.30
2023-04-06T07:04:02.881Z,5.93
2023-04-06T07:06:29.334Z,6.13
2023-04-06T07:08:58.978Z,5.93
2023-04-06T07:11:25.527Z,5.57
2023-04-06T07:13:52.221Z,7.35
2023-04-06T07:16:18.640Z,5.95
2023-04-06T07:18:45.014Z,5.65
2023-04-06T07:21:11.357Z,5.07
2023-04-06T07:23:38.115Z,5.28
2023-04-06T07:26:04.641Z,5.15
2023-04-06T07:28:31.072Z,4.93
2023-04-06T07:30:57.500Z,4.55
2023-04-06T07:33:23.890Z,4.80
2023-04-06T07:35:53.485Z,5.30
2023-04-06T07:38:19.950Z,4.80
2023-04-06T07:40:46.305Z,5.25
2023-04-06T07:43:15.305Z,4.85
2023-04-06T07:45:41.705Z,5.18
2023-04-06T07:48:08.125Z,5.53
2023-04-06T07:50:34.904Z,5.28
2023-04-06T07:53:02.047Z,5.20
2023-04-06T07:55:28.487Z,4.28
2023-04-06T07:57:55.016Z,4.88
2023-04-06T08:00:21.868Z,5.38
2023-04-06T08:02:48.326Z,4.88
2023-04-06T08:05:15.002Z,4.68
2023-04-06T08:07:42.593Z,5.07
2023-04-06T08:10:09.500Z,5.07
2023-04-06T08:12:35.974Z,4.28
2023-04-06T08:15:06.154Z,5.47
2023-04-06T08:17:33.176Z,4.63
2023-04-06T08:19:59.705Z,5.63
2023-04-06T08:22:30.887Z,4.88
2023-04-06T08:24:57.378Z,5.50
2023-04-06T08:27:23.956Z,4.85
2023-04-06T08:29:52.101Z,4.13
2023-04-06T08:32:18.532Z,5.90
2023-04-06T08:34:48.037Z,4.97
2023-04-06T08:37:14.655Z,4.45
2023-04-06T08:39:41.239Z,5.35
2023-04-06T08:42:19.678Z,5.57
2023-04-06T08:44:47.183Z,5.05
2023-04-06T08:47:14.066Z,5.35
2023-04-06T08:49:44.418Z,4.57
2023-04-06T08:52:11.872Z,4.70
2023-04-06T08:54:39.149Z,4.55
2023-04-06T08:57:10.958Z,3.80
2023-04-06T08:59:37.964Z,4.35
2023-04-06T09:02:11.611Z,4.75
2023-04-06T09:04:38.271Z,4.90
2023-04-06T09:07:05.034Z,4.38
2023-04-06T09:09:33.677Z,3.85
2023-04-06T09:12:06.678Z,4.22
2023-04-06T09:14:41.875Z,4.45
2023-04-06T09:17:08.307Z,4.35
2023-04-06T09:19:34.947Z,3.97
2023-04-06T09:22:05.990Z,4.43
2023-04-06T09:24:46.727Z,3.95
2023-04-06T09:27:14.292Z,4.55
2023-04-06T09:29:41.918Z,4.03
2023-04-06T09:32:13.154Z,4.43
2023-04-06T09:34:40.152Z,4.03
2023-04-06T09:37:22.192Z,4.25
2023-04-06T09:39:48.832Z,4.43
2023-04-06T09:42:27.757Z,4.70
2023-04-06T09:44:54.182Z,3.47
2023-04-06T09:47:20.946Z,4.25
2023-04-06T09:49:50.749Z,3.92
2023-04-06T09:52:19.032Z,4.07
2023-04-06T09:54:53.652Z,4.35
2023-04-06T09:57:29.655Z,4.05
2023-04-06T10:00:15.405Z,3.80
2023-04-06T10:03:12.878Z,4.00
2023-04-06T10:05:55.996Z,4.07
2023-04-06T10:08:26.410Z,3.20
2023-04-06T10:10:53.282Z,3.63
2023-04-06T10:13:20.055Z,3.28
2023-04-06T10:15:46.683Z,3.28
2023-04-06T10:18:17.197Z,3.80
2023-04-06T10:20:49.281Z,3.53
2023-04-06T10:26:14.374Z,4.10
2023-04-06T10:28:42.943Z,4.20
2023-04-06T10:31:09.359Z,4.22
2023-04-06T10:33:36.555Z,3.60
2023-04-06T10:36:12.654Z,3.78
2023-04-06T10:38:41.907Z,2.90
2023-04-06T10:41:15.815Z,3.50
2023-04-06T10:43:42.696Z,3.22
2023-04-06T10:46:10.521Z,3.33
2023-04-06T10:48:57.792Z,3.35
2023-04-06T10:51:49.607Z,3.30
2023-04-06T10:54:35.754Z,3.47
2023-04-06T10:57:20.934Z,3.10
2023-04-06T11:00:06.343Z,2.80
2023-04-06T11:02:51.517Z,2.78
2023-04-06T11:05:36.694Z,2.95
2023-04-06T11:08:21.646Z,3.20
2023-04-06T11:11:09.609Z,3.20
2023-04-06T11:14:00.257Z,3.28
2023-04-06T11:16:50.653Z,3.42
2023-04-06T11:19:36.113Z,3.22
2023-04-06T11:22:27.233Z,2.80
2023-04-06T11:25:13.172Z,3.28
2023-04-06T11:27:58.355Z,4.65
2023-04-06T11:30:43.737Z,4.35
2023-04-06T11:33:28.902Z,4.20
2023-04-06T11:36:17.184Z,4.18
2023-04-06T11:39:02.622Z,4.70
2023-04-06T11:41:47.388Z,4.00
2023-04-06T11:44:35.725Z,4.60
2023-04-06T11:47:26.215Z,4.60
2023-04-06T11:50:01.820Z,4.25
2023-04-06T11:52:29.062Z,5.40
2023-04-06T11:54:57.763Z,5.45
2023-04-06T11:57:26.857Z,5.80
2023-04-06T11:59:53.930Z,5.63
2023-04-06T12:02:20.336Z,6.55
2023-04-06T12:04:50.008Z,5.72
2023-04-06T12:07:16.473Z,5.53
2023-04-06T12:09:43.884Z,5.63
2023-04-06T12:12:10.459Z,4.93
2023-04-06T12:14:39.327Z,5.30
2023-04-06T12:17:05.915Z,5.40
2023-04-06T12:19:32.718Z,4.75
2023-04-06T12:21:59.523Z,4.57
2023-04-06T12:24:26.295Z,5.68
2023-04-06T12:27:08.653Z,5.93
2023-04-06T12:29:36.070Z,5.38
2023-04-06T12:32:02.693Z,4.97
2023-04-06T12:34:29.443Z,5.47
2023-04-06T12:36:56.831Z,5.53
2023-04-06T12:39:23.623Z,6.72
2023-04-06T12:41:53.113Z,5.28
2023-04-06T12:44:19.643Z,7.22
2023-04-06T12:46:46.377Z,6.70
2023-04-06T12:49:17.755Z,6.82
2023-04-06T12:51:44.128Z,6.03
2023-04-06T12:54:11.950Z,4.80
2023-04-06T12:56:38.576Z,5.85
2023-04-06T12:59:04.998Z,6.28
2023-04-06T13:01:31.829Z,6.32
2023-04-06T13:04:00.134Z,5.63
2023-04-06T13:06:29.487Z,5.75
2023-04-06T13:08:57.812Z,5.50
2023-04-06T13:11:30.039Z,6.53
2023-04-06T13:13:56.553Z,5.10
2023-04-06T13:16:25.972Z,5.32
2023-04-06T13:18:54.724Z,5.43
2023-04-06T13:21:21.858Z,4.78
2023-04-06T13:23:48.417Z,5.50
2023-04-06T13:26:17.715Z,5.18
2023-04-06T13:28:48.838Z,5.45
2023-04-06T13:31:15.452Z,5.63
2023-04-06T13:33:42.027Z,5.53
2023-04-06T13:36:08.999Z,5.68
2023-04-06T13:38:35.621Z,5.47
2023-04-06T13:41:02.218Z,5.10
2023-04-06T13:43:28.664Z,5.28
2023-04-06T13:45:59.450Z,5.53
2023-04-06T13:48:27.057Z,5.00
2023-04-06T13:50:53.498Z,5.03
2023-04-06T13:53:20.059Z,4.40
2023-04-06T13:55:53.733Z,4.57
2023-04-06T13:58:20.288Z,5.07
2023-04-06T14:00:47.229Z,5.00
2023-04-06T14:03:16.384Z,5.50
2023-04-06T14:05:43.073Z,4.78
2023-04-06T14:08:09.546Z,5.15
2023-04-06T14:10:41.346Z,5.25
2023-04-06T14:13:11.034Z,5.28
2023-04-06T14:15:40.123Z,5.18
2023-04-06T14:18:09.192Z,4.50
2023-04-06T14:20:38.088Z,5.43
2023-04-06T14:23:04.783Z,5.70
2023-04-06T14:25:32.835Z,5.80
2023-04-06T14:27:59.363Z,5.88
2023-04-06T14:30:25.972Z,5.95
2023-04-06T14:32:52.806Z,6.78
2023-04-06T14:35:21.899Z,5.32
2023-04-06T14:37:48.415Z,6.40
2023-04-06T14:40:14.892Z,5.72
2023-04-06T14:42:41.574Z,5.50
2023-04-06T14:45:08.337Z,6.28
2023-04-06T14:47:34.843Z,6.03
2023-04-06T14:50:05.018Z,5.20
2023-04-06T14:52:32.792Z,6.20
2023-04-06T14:54:59.520Z,5.43
2023-04-06T14:57:25.926Z,5.93
2023-04-06T14:59:54.452Z,5.40
2023-04-06T15:02:23.859Z,5.40
2023-04-06T15:04:54.009Z,4.40
2023-04-06T15:07:21.473Z,4.15
2023-04-06T15:09:47.843Z,5.13
2023-04-06T15:12:14.295Z,4.97
2023-04-06T15:14:42.990Z,4.07
2023-04-06T15:17:09.389Z,5.13
2023-04-06T15:19:35.988Z,5.38
2023-04-06T15:22:02.518Z,4.93
2023-04-06T15:24:28.924Z,4.70
2023-04-06T15:26:55.942Z,4.50
2023-04-06T15:29:22.438Z,3.38
2023-04-06T15:31:51.237Z,3.30
2023-04-06T15:34:17.829Z,3.90
2023-04-06T15:36:46.541Z,3.40
2023-04-06T15:39:13.875Z,3.97
2023-04-06T15:41:43.389Z,3.60
2023-04-06T15:44:11.920Z,3.65
2023-04-06T15:46:38.526Z,3.85
2023-04-06T15:49:05.050Z,3.58
2023-04-06T15:51:31.490Z,3.28
2023-04-06T15:53:58.625Z,3.90
2023-04-06T15:56:27.397Z,3.58
2023-04-06T15:58:53.800Z,3.67
2023-04-06T16:01:20.596Z,3.38
2023-04-06T16:03:47.559Z,3.80
2023-04-06T16:06:14.254Z,3.50
2023-04-06T16:08:41.079Z,3.47
2023-04-06T16:11:10.417Z,3.25
2023-04-06T16:13:37.049Z,4.78
2023-04-06T16:16:06.873Z,4.18
2023-04-06T16:18:36.220Z,4.25
2023-04-06T16:21:03.400Z,3.55
2023-04-06T16:23:32.230Z,3.92
2023-04-06T16:25:58.655Z,3.85
2023-04-06T16:28:25.625Z,3.03
2023-04-06T16:30:54.342Z,3.03
2023-04-06T16:33:21.092Z,2.90
2023-04-06T16:35:48.382Z,4.05
2023-04-06T16:38:15.967Z,4.82
2023-04-06T16:40:42.536Z,3.38
2023-04-06T16:43:09.924Z,3.10
2023-04-06T16:45:36.919Z,4.03
2023-04-06T16:48:04.096Z,2.95
2023-04-06T16:50:30.737Z,3.28
2023-04-06T16:52:57.137Z,3.05
2023-04-06T16:55:23.621Z,7.38
2023-04-06T16:57:50.159Z,4.35
2023-04-06T17:00:17.138Z,4.65
2023-04-06T17:02:47.095Z,4.07
2023-04-06T17:05:14.169Z,6.60
2023-04-06T17:07:45.407Z,4.35
2023-04-06T17:10:11.869Z,10.57
2023-04-06T17:12:38.236Z,4.25
2023-04-06T17:15:04.925Z,2.65
2023-04-06T17:17:33.770Z,2.45
2023-04-06T17:20:00.344Z,2.05
2023-04-06T17:22:29.120Z,3.25
2023-04-06T17:24:55.517Z,2.20
2023-04-06T17:27:23.526Z,2.10
2023-04-06T17:29:50.058Z,2.20
2023-04-06T17:32:16.571Z,2.45
2023-04-06T17:34:43.076Z,2.42
2023-04-06T17:37:09.650Z,2.28
2023-04-06T17:39:36.686Z,2.63
2023-04-06T17:42:06.829Z,3.33
2023-04-06T17:44:33.962Z,3.75
2023-04-06T17:47:00.513Z,2.72
2023-04-06T17:49:26.879Z,4.00
2023-04-06T17:51:53.244Z,5.10
2023-04-06T17:54:19.640Z,5.65
2023-04-06T17:56:48.906Z,4.25
2023-04-06T17:59:15.540Z,3.45
2023-04-06T18:01:42.078Z,3.13
2023-04-06T18:04:08.525Z,3.65
2023-04-06T18:06:35.159Z,3.70
2023-04-06T18:09:03.494Z,3.83
2023-04-06T18:11:35.822Z,3.80
2023-04-06T18:16:34.544Z,4.28
2023-04-06T18:19:01.684Z,3.90
2023-04-06T18:21:28.636Z,4.60
2023-04-06T18:23:55.443Z,8.43
2023-04-06T18:26:22.149Z,14.43
2023-04-06T18:28:50.983Z,13.02
2023-04-06T18:31:21.598Z,12.35
2023-04-06T18:33:48.111Z,13.73
2023-04-06T18:36:16.971Z,12.60
2023-04-06T18:38:47.859Z,13.15
2023-04-06T18:41:18.168Z,7.82
2023-04-06T18:43:44.786Z,6.35
2023-04-06T18:46:15.679Z,5.43
2023-04-06T18:48:45.666Z,5.50
2023-04-06T18:51:12.045Z,6.28
2023-04-06T18:53:41.045Z,5.90
2023-04-06T18:56:18.789Z,6.03
2023-04-06T18:58:46.452Z,6.60
2023-04-06T19:01:29.023Z,5.32
2023-04-06T19:03:56.682Z,5.72
2023-04-06T19:06:27.398Z,8.13
2023-04-06T19:08:53.969Z,5.95
2023-04-06T19:11:23.119Z,5.60
2023-04-06T19:13:49.977Z,5.78
2023-04-06T19:16:17.742Z,6.07
2023-04-06T19:18:45.483Z,5.38
2023-04-06T19:21:15.719Z,5.90
2023-04-06T19:23:45.099Z,5.90
2023-04-06T19:26:12.935Z,7.03
2023-04-06T19:28:39.665Z,7.25
2023-04-06T19:31:08.749Z,9.02
2023-04-06T19:33:36.685Z,8.60
2023-04-06T19:36:06.230Z,7.40
2023-04-06T19:38:34.147Z,6.63
2023-04-06T19:41:01.792Z,6.55
2023-04-06T19:43:31.061Z,6.90
2023-04-06T19:46:00.740Z,6.57
2023-04-06T19:48:27.215Z,6.78
2023-04-06T19:50:57.014Z,5.82
2023-04-06T19:53:23.653Z,7.68
2023-04-06T19:55:52.525Z,8.20
2023-04-06T19:58:18.912Z,8.43
2023-04-06T20:00:47.779Z,7.38
2023-04-06T20:03:14.472Z,7.05
2023-04-06T20:05:41.074Z,6.50
2023-04-06T20:08:09.977Z,5.88
2023-04-06T20:10:36.552Z,6.22
2023-04-06T20:13:04.256Z,6.43
2023-04-06T20:15:33.040Z,6.43
2023-04-06T20:17:59.433Z,6.47
2023-04-06T20:20:26.008Z,7.13
2023-04-06T20:22:52.536Z,6.72
2023-04-06T20:25:19.714Z,7.28
2023-04-06T20:27:48.651Z,7.93
2023-04-06T20:30:16.740Z,6.43
2023-04-06T20:32:43.687Z,6.18
2023-04-06T20:35:12.983Z,6.22
2023-04-06T20:37:39.437Z,6.55
2023-04-06T20:40:06.832Z,5.63
2023-04-06T20:42:34.365Z,6.57
2023-04-06T20:45:03.498Z,5.97
2023-04-06T20:47:31.490Z,5.95
2023-04-06T20:49:58.148Z,6.50
2023-04-06T20:52:24.697Z,5.45
2023-04-06T20:54:51.117Z,6.93
2023-04-06T20:57:17.708Z,6.70
2023-04-06T20:59:45.194Z,6.20
2023-04-06T21:02:11.767Z,6.55
2023-04-06T21:04:43.480Z,7.03
2023-04-06T21:07:10.389Z,7.75
2023-04-06T21:09:38.599Z,7.85
2023-04-06T21:12:06.520Z,7.43
2023-04-06T21:14:33.340Z,7.15
2023-04-06T21:17:04.666Z,7.50
2023-04-06T21:19:33.526Z,7.93
2023-04-06T21:22:00.147Z,7.85
2023-04-06T21:24:27.071Z,8.73
2023-04-06T21:26:53.505Z,16.98
2023-04-06T21:29:20.106Z,9.45
2023-04-06T21:31:46.554Z,9.95
2023-04-06T21:34:14.016Z,8.00
2023-04-06T21:36:41.614Z,6.65
2023-04-06T21:39:08.493Z,8.00
2023-04-06T21:41:34.900Z,7.25
2023-04-06T21:44:01.338Z,7.00
2023-04-06T21:46:27.873Z,12.60
2023-04-06T21:48:54.352Z,7.93
2023-04-06T21:51:22.009Z,7.70
2023-04-06T21:53:49.037Z,56.03
2023-04-06T21:56:24.232Z,49.60
2023-04-06T21:58:51.673Z,15.90
2023-04-06T22:01:19.342Z,24.77
2023-04-06T22:03:46.818Z,20.38
2023-04-06T22:06:13.923Z,17.75
2023-04-06T22:08:40.484Z,7.40
2023-04-06T22:11:09.014Z,7.07
2023-04-06T22:13:38.615Z,12.27
2023-04-06T22:16:11.526Z,7.60
2023-04-06T22:18:39.247Z,7.85
2023-04-06T22:21:06.939Z,8.27
2023-04-06T22:23:33.555Z,8.27
2023-04-06T22:26:04.950Z,8.05
2023-04-06T22:28:31.302Z,7.65
2023-04-06T22:30:57.717Z,6.88
2023-04-06T22:33:26.566Z,7.60
2023-04-06T22:35:53.045Z,7.65
2023-04-06T22:38:19.447Z,7.40
2023-04-06T22:40:45.894Z,7.13
2023-04-06T22:43:12.258Z,7.20
2023-04-06T22:45:41.669Z,7.82
2023-04-06T22:48:08.136Z,6.82
2023-04-06T22:50:35.357Z,7.53
2023-04-06T22:53:02.297Z,7.78
2023-04-06T22:55:28.919Z,7.30
2023-04-06T22:57:55.447Z,6.20
2023-04-06T23:00:28.282Z,7.30
2023-04-06T23:02:55.011Z,6.15
2023-04-06T23:05:21.582Z,6.18
2023-04-06T23:07:51.341Z,6.80
2023-04-06T23:10:21.071Z,5.82
2023-04-06T23:12:48.313Z,6.97
2023-04-06T23:15:14.908Z,6.72
2023-04-06T23:17:41.549Z,6.93
2023-04-06T23:20:08.237Z,6.78
2023-04-06T23:22:37.239Z,7.05
2023-04-06T23:25:03.966Z,6.57
2023-04-06T23:27:33.014Z,7.10
2023-04-06T23:29:59.737Z,7.10
2023-04-06T23:32:28.564Z,6.10
2023-04-06T23:34:54.994Z,6.35
2023-04-06T23:37:21.423Z,6.43
2023-04-06T23:39:48.446Z,7.55
2023-04-06T23:42:14.904Z,7.20
2023-04-06T23:44:41.343Z,7.22
2023-04-06T23:47:07.908Z,6.80
2023-04-06T23:49:36.648Z,7.18
2023-04-06T23:52:03.552Z,7.13
2023-04-06T23:54:32.254Z,7.55
2023-04-06T23:57:01.300Z,6.97
2023-04-06T23:59:29.965Z,7.03
